Time;durP1;ratioP1;P1;durP2;ratioP2;P2;SDS_P1;SDS_P2;PMS_P1;PMS_P2;Temp;Humidity;BMP_temperature;BMP_pressure;BME280_temperature;BME280_humidity;BME280_pressure;Samples;Min_cycle;Max_cycle;Signal;HPM_P1;HPM_P2
2022/01/27 00:00:38;;;;;;;27.02;14.13;;;;;;;;;;5022739;28;20628;-81
2022/01/27 00:05:32;;;;;;;27.77;14.60;;;;;;;;;;5023896;28;20029;-84
2022/01/27 00:12:58;;;;;;;29.00;15.13;;;;;;;;;;5028268;28;20025;-83
2022/01/27 00:15:30;;;;;;;29.38;14.98;;;;;;;;;;5011389;28;20369;-82
2022/01/27 00:18:00;;;;;;;28.52;15.10;;;;;;;;;;5008246;28;20124;-83
2022/01/27 00:20:26;;;;;;;27.50;15.10;;;;;;;;;;5008334;28;20387;-83
2022/01/27 00:22:51;;;;;;;26.88;14.40;;;;;;;;;;5000464;28;20032;-84
2022/01/27 00:25:16;;;;;;;30.48;14.55;;;;;;;;;;5011447;28;20033;-83
2022/01/27 00:27:42;;;;;;;27.10;14.05;;;;;;;;;;5009827;28;20033;-84
2022/01/27 00:30:10;;;;;;;25.98;14.48;;;;;;;;;;5005250;28;20391;-82
2022/01/27 00:32:35;;;;;;;29.30;15.38;;;;;;;;;;5008388;28;20446;-82
2022/01/27 00:35:03;;;;;;;27.52;14.10;;;;;;;;;;5005645;28;20026;-83
2022/01/27 00:37:28;;;;;;;30.00;16.13;;;;;;;;;;5005940;28;20037;-83
2022/01/27 00:39:54;;;;;;;28.90;16.35;;;;;;;;;;5005738;28;20021;-81
2022/01/27 00:42:20;;;;;;;27.45;15.38;;;;;;;;;;5007075;28;20030;-83
2022/01/27 00:44:45;;;;;;;30.27;14.93;;;;;;;;;;5003888;28;20033;-83
2022/01/27 00:47:11;;;;;;;26.98;14.68;;;;;;;;;;5008661;28;20052;-84
2022/01/27 00:49:37;;;;;;;30.42;16.73;;;;;;;;;;5007261;28;20025;-84
2022/01/27 00:52:06;;;;;;;33.30;16.85;;;;;;;;;;5005504;28;20492;-82
2022/01/27 00:54:32;;;;;;;32.50;17.15;;;;;;;;;;5001971;28;20025;-84
2022/01/27 00:57:10;;;;;;;31.75;16.48;;;;;;;;;;5005071;28;20041;-82
2022/01/27 01:05:35;;;;;;;30.10;16.13;;;;;;;;;;4995664;28;20048;-82
2022/01/27 01:08:38;;;;;;;33.55;17.35;;;;;;;;;;5006905;28;20029;-83
2022/01/27 01:15:42;;;;;;;32.50;16.90;;;;;;;;;;5024519;28;20056;-84
2022/01/27 01:33:57;;;;;;;35.22;16.33;;;;;;;;;;5003579;28;20030;-83
2022/01/27 01:36:45;;;;;;;30.48;15.80;;;;;;;;;;5001891;28;20045;-83
2022/01/27 01:39:12;;;;;;;32.45;16.95;;;;;;;;;;4996870;28;20026;-84
2022/01/27 01:41:38;;;;;;;31.13;15.82;;;;;;;;;;5001705;28;20029;-82
2022/01/27 01:44:03;;;;;;;30.48;17.05;;;;;;;;;;5000190;28;20137;-84
2022/01/27 01:46:29;;;;;;;29.33;16.65;;;;;;;;;;5004468;28;20164;-84
2022/01/27 01:48:55;;;;;;;29.90;15.95;;;;;;;;;;5005991;28;20026;-84
2022/01/27 01:51:25;;;;;;;30.98;16.55;;;;;;;;;;4998325;28;20489;-84
2022/01/27 01:53:51;;;;;;;31.17;16.20;;;;;;;;;;5006030;28;20033;-82
2022/01/27 01:56:16;;;;;;;28.73;15.95;;;;;;;;;;5006091;28;20026;-81
2022/01/27 01:58:41;;;;;;;31.73;16.08;;;;;;;;;;5001766;28;20033;-82
2022/01/27 02:01:07;;;;;;;32.15;16.70;;;;;;;;;;4999530;28;20025;-84
2022/01/27 02:03:32;;;;;;;33.03;15.75;;;;;;;;;;5003286;28;20026;-83
2022/01/27 02:05:58;;;;;;;27.33;15.05;;;;;;;;;;4998118;28;20029;-84
2022/01/27 02:19:26;;;;;;;30.92;15.85;;;;;;;;;;5018983;28;20091;-82
2022/01/27 02:21:57;;;;;;;29.90;15.73;;;;;;;;;;5005558;28;20036;-83
2022/01/27 02:24:26;;;;;;;32.05;16.90;;;;;;;;;;5017638;28;20488;-83
2022/01/27 02:26:52;;;;;;;28.85;15.48;;;;;;;;;;5022786;28;20025;-83
2022/01/27 02:29:19;;;;;;;28.60;14.90;;;;;;;;;;5019416;28;20175;-84
2022/01/27 02:31:45;;;;;;;29.85;16.05;;;;;;;;;;5005604;28;20022;-83
2022/01/27 02:34:11;;;;;;;28.20;15.48;;;;;;;;;;5018666;28;20021;-84
2022/01/27 02:36:36;;;;;;;29.83;15.68;;;;;;;;;;5003021;28;20026;-83
2022/01/27 02:39:04;;;;;;;33.08;16.23;;;;;;;;;;5022041;28;20034;-82
2022/01/27 02:41:35;;;;;;;32.42;15.80;;;;;;;;;;5005857;28;20029;-82
2022/01/27 02:44:00;;;;;;;31.55;16.48;;;;;;;;;;5006799;28;20033;-83
2022/01/27 02:46:34;;;;;;;30.83;16.75;;;;;;;;;;5003246;28;20028;-84
2022/01/27 02:48:59;;;;;;;30.83;15.68;;;;;;;;;;5005389;28;20029;-84
2022/01/27 02:51:25;;;;;;;29.35;16.40;;;;;;;;;;5008943;28;20030;-81
2022/01/27 02:53:50;;;;;;;27.55;15.05;;;;;;;;;;5001677;28;20025;-83
2022/01/27 02:56:15;;;;;;;28.45;16.30;;;;;;;;;;5019738;28;20396;-83
2022/01/27 02:58:41;;;;;;;29.25;15.32;;;;;;;;;;5001039;28;20128;-82
2022/01/27 03:01:06;;;;;;;31.30;16.27;;;;;;;;;;5000570;28;20476;-83
2022/01/27 03:03:31;;;;;;;32.45;16.60;;;;;;;;;;5006399;28;20459;-83
2022/01/27 03:05:57;;;;;;;31.88;17.15;;;;;;;;;;5002160;28;20481;-84
2022/01/27 03:08:22;;;;;;;31.77;16.88;;;;;;;;;;5007742;28;20092;-84
2022/01/27 03:11:12;;;;;;;26.48;15.52;;;;;;;;;;5007655;28;20061;-83
2022/01/27 03:13:39;;;;;;;28.83;15.50;;;;;;;;;;5009979;28;20392;-84
2022/01/27 03:16:06;;;;;;;29.45;15.73;;;;;;;;;;5009633;28;20040;-83
2022/01/27 03:18:32;;;;;;;29.08;15.90;;;;;;;;;;5007157;28;20052;-83
2022/01/27 03:20:57;;;;;;;29.92;16.20;;;;;;;;;;5004552;28;20029;-83
2022/01/27 03:23:23;;;;;;;29.05;15.68;;;;;;;;;;5007390;28;20068;-84
2022/01/27 03:25:48;;;;;;;32.13;16.55;;;;;;;;;;5008065;28;20091;-81
2022/01/27 03:28:14;;;;;;;26.75;15.27;;;;;;;;;;5008739;28;20037;-84
2022/01/27 03:30:40;;;;;;;27.45;15.38;;;;;;;;;;5023895;28;20467;-83
2022/01/27 03:33:05;;;;;;;27.85;15.68;;;;;;;;;;5003887;28;20048;-83
2022/01/27 03:35:30;;;;;;;30.83;15.55;;;;;;;;;;5009761;28;20045;-82
2022/01/27 03:37:56;;;;;;;29.92;15.13;;;;;;;;;;5003870;28;20554;-84
2022/01/27 03:40:21;;;;;;;27.42;15.02;;;;;;;;;;5008676;28;20116;-83
2022/01/27 03:43:01;;;;;;;33.33;15.40;;;;;;;;;;5003673;28;20022;-82
2022/01/27 03:45:27;;;;;;;25.70;14.43;;;;;;;;;;5007472;28;20033;-83
2022/01/27 03:47:52;;;;;;;27.92;15.40;;;;;;;;;;5020748;28;20515;-82
2022/01/27 03:50:17;;;;;;;28.80;15.25;;;;;;;;;;5006275;28;20125;-84
2022/01/27 03:52:43;;;;;;;26.83;14.05;;;;;;;;;;5004069;28;20476;-82
2022/01/27 03:55:08;;;;;;;26.30;14.05;;;;;;;;;;5004426;28;20022;-83
2022/01/27 03:57:34;;;;;;;30.13;15.50;;;;;;;;;;5006430;28;20025;-83
2022/01/27 03:59:59;;;;;;;26.67;14.55;;;;;;;;;;5006313;28;20033;-84
2022/01/27 04:02:24;;;;;;;28.35;14.73;;;;;;;;;;5005641;28;20030;-82
2022/01/27 04:04:50;;;;;;;27.58;14.30;;;;;;;;;;5006857;28;20061;-84
2022/01/27 04:07:15;;;;;;;27.58;14.25;;;;;;;;;;5007995;28;20041;-84
2022/01/27 04:09:40;;;;;;;27.17;14.13;;;;;;;;;;5005759;28;20030;-82
2022/01/27 04:12:06;;;;;;;26.00;13.82;;;;;;;;;;5006545;28;20035;-81
2022/01/27 04:14:32;;;;;;;26.88;14.18;;;;;;;;;;5026482;28;20036;-82
2022/01/27 04:16:57;;;;;;;29.10;14.25;;;;;;;;;;5002164;28;20053;-81
2022/01/27 04:19:22;;;;;;;24.55;13.80;;;;;;;;;;5004287;28;20115;-83
2022/01/27 04:21:47;;;;;;;30.50;14.63;;;;;;;;;;5002789;28;20040;-84
2022/01/27 04:24:16;;;;;;;25.13;14.10;;;;;;;;;;5001066;28;20112;-84
2022/01/27 04:26:45;;;;;;;29.95;14.10;;;;;;;;;;5002758;28;20492;-82
2022/01/27 04:29:12;;;;;;;26.33;14.63;;;;;;;;;;4999580;28;20030;-83
2022/01/27 04:31:40;;;;;;;26.77;13.45;;;;;;;;;;5002905;28;20497;-84
2022/01/27 04:34:05;;;;;;;28.67;13.57;;;;;;;;;;4996327;28;20049;-82
2022/01/27 04:36:32;;;;;;;29.70;14.05;;;;;;;;;;4995601;28;20030;-82
2022/01/27 04:39:09;;;;;;;26.42;13.98;;;;;;;;;;5002796;28;20053;-83
2022/01/27 04:44:48;;;;;;;27.08;13.85;;;;;;;;;;4929557;29;20124;-83
2022/01/27 04:47:21;;;;;;;26.50;13.30;;;;;;;;;;4928202;29;20126;-83
2022/01/27 04:49:47;;;;;;;25.25;13.50;;;;;;;;;;4971914;28;20085;-84
2022/01/27 04:52:13;;;;;;;29.45;13.85;;;;;;;;;;5004150;28;20396;-83
2022/01/27 04:54:52;;;;;;;27.50;12.77;;;;;;;;;;5004411;28;20435;-82
2022/01/27 04:57:17;;;;;;;28.30;12.80;;;;;;;;;;5001338;28;20025;-81
2022/01/27 04:59:44;;;;;;;25.08;12.63;;;;;;;;;;4999490;28;20036;-82
2022/01/27 05:02:38;;;;;;;27.58;13.25;;;;;;;;;;5002890;28;20034;-83
2022/01/27 05:04:58;;;;;;;24.08;12.27;;;;;;;;;;5002333;28;20029;-83
2022/01/27 05:07:23;;;;;;;27.23;12.80;;;;;;;;;;5002129;28;20026;-83
2022/01/27 05:09:57;;;;;;;28.65;13.05;;;;;;;;;;5001856;28;20030;-82
2022/01/27 05:12:35;;;;;;;23.50;11.63;;;;;;;;;;5001215;28;20033;-83
2022/01/27 05:15:00;;;;;;;24.90;12.27;;;;;;;;;;5002373;28;20388;-83
2022/01/27 05:17:26;;;;;;;24.65;11.52;;;;;;;;;;5013131;28;20041;-83
2022/01/27 05:19:51;;;;;;;31.88;13.75;;;;;;;;;;5003838;28;20562;-84
2022/01/27 05:22:17;;;;;;;22.92;11.50;;;;;;;;;;5007257;28;20152;-83
2022/01/27 05:24:42;;;;;;;26.20;12.63;;;;;;;;;;5007400;28;20033;-83
2022/01/27 05:27:07;;;;;;;23.52;12.23;;;;;;;;;;5004360;28;20099;-84
2022/01/27 05:29:33;;;;;;;27.15;12.70;;;;;;;;;;5025028;28;20033;-83
2022/01/27 05:31:58;;;;;;;23.25;12.10;;;;;;;;;;5022170;28;20036;-83
2022/01/27 05:34:23;;;;;;;20.33;11.73;;;;;;;;;;5005611;28;20018;-83
2022/01/27 05:36:49;;;;;;;23.88;11.27;;;;;;;;;;5006922;28;20025;-84
2022/01/27 05:39:14;;;;;;;27.55;12.20;;;;;;;;;;5002473;28;20025;-84
2022/01/27 05:41:39;;;;;;;23.88;11.40;;;;;;;;;;5006618;28;20022;-84
2022/01/27 05:44:05;;;;;;;26.25;12.57;;;;;;;;;;5021552;28;20029;-83
2022/01/27 05:46:30;;;;;;;20.77;11.82;;;;;;;;;;5012636;28;20056;-82
2022/01/27 05:48:55;;;;;;;25.52;11.18;;;;;;;;;;5004430;28;20073;-83
2022/01/27 05:51:21;;;;;;;21.35;11.13;;;;;;;;;;5006681;28;20439;-83
2022/01/27 05:53:47;;;;;;;21.65;10.98;;;;;;;;;;5001551;28;21682;-82
2022/01/27 05:56:12;;;;;;;24.00;11.68;;;;;;;;;;5003024;28;20107;-83
2022/01/27 05:58:38;;;;;;;22.92;10.77;;;;;;;;;;5018314;28;20631;-82
2022/01/27 06:01:03;;;;;;;25.63;11.40;;;;;;;;;;5018952;28;20048;-81
2022/01/27 06:03:29;;;;;;;23.08;11.90;;;;;;;;;;5005291;28;20060;-83
2022/01/27 06:05:54;;;;;;;23.42;11.18;;;;;;;;;;5002593;28;20025;-81
2022/01/27 06:08:19;;;;;;;22.30;11.00;;;;;;;;;;5001939;28;20065;-82
2022/01/27 06:10:45;;;;;;;26.27;12.07;;;;;;;;;;5021094;28;20056;-82
2022/01/27 06:13:10;;;;;;;23.02;11.65;;;;;;;;;;5005698;28;20484;-83
2022/01/27 06:15:35;;;;;;;23.88;11.05;;;;;;;;;;5004002;28;22315;-83
2022/01/27 06:18:01;;;;;;;20.40;10.85;;;;;;;;;;5022120;28;20389;-83
2022/01/27 06:20:31;;;;;;;21.40;11.85;;;;;;;;;;5006507;28;20025;-82
2022/01/27 06:22:59;;;;;;;20.90;11.30;;;;;;;;;;5005882;28;20044;-83
2022/01/27 06:25:27;;;;;;;21.83;10.88;;;;;;;;;;5007809;28;20048;-82
2022/01/27 06:27:53;;;;;;;22.02;10.82;;;;;;;;;;5008209;28;20480;-83
2022/01/27 06:30:18;;;;;;;24.65;11.55;;;;;;;;;;5003984;28;20454;-83
2022/01/27 06:32:45;;;;;;;25.38;11.77;;;;;;;;;;5000405;28;20026;-81
2022/01/27 06:35:11;;;;;;;22.45;10.93;;;;;;;;;;5005684;28;20068;-82
2022/01/27 06:37:37;;;;;;;22.45;10.50;;;;;;;;;;5002386;28;20053;-82
2022/01/27 06:40:04;;;;;;;20.02;10.77;;;;;;;;;;5012678;28;20037;-82
2022/01/27 06:42:30;;;;;;;20.85;10.38;;;;;;;;;;5011424;28;20029;-83
2022/01/27 06:44:55;;;;;;;22.92;10.73;;;;;;;;;;5026304;28;20049;-84
2022/01/27 06:47:21;;;;;;;25.42;11.05;;;;;;;;;;5023613;28;20036;-84
2022/01/27 06:49:46;;;;;;;21.33;10.93;;;;;;;;;;5011184;28;20153;-83
2022/01/27 06:52:12;;;;;;;23.45;10.32;;;;;;;;;;5005714;28;20392;-81
2022/01/27 06:54:37;;;;;;;20.70;10.60;;;;;;;;;;5022506;28;20036;-82
2022/01/27 06:57:03;;;;;;;20.42;10.65;;;;;;;;;;5011369;28;20527;-83
2022/01/27 06:59:29;;;;;;;24.15;10.93;;;;;;;;;;5011578;28;20040;-84
2022/01/27 07:01:54;;;;;;;23.45;11.38;;;;;;;;;;5026083;28;20480;-83
2022/01/27 07:04:20;;;;;;;21.92;11.07;;;;;;;;;;5005518;28;20464;-83
2022/01/27 07:06:47;;;;;;;21.05;10.57;;;;;;;;;;5013616;28;20423;-85
2022/01/27 07:09:12;;;;;;;21.77;10.68;;;;;;;;;;5011652;28;20030;-82
2022/01/27 07:11:37;;;;;;;20.42;10.13;;;;;;;;;;5004934;28;20494;-85
2022/01/27 07:14:03;;;;;;;22.15;10.80;;;;;;;;;;5009042;28;20029;-83
2022/01/27 07:16:28;;;;;;;23.65;10.70;;;;;;;;;;5006424;28;20080;-85
2022/01/27 07:18:53;;;;;;;18.13;10.43;;;;;;;;;;5009404;28;20025;-82
2022/01/27 07:21:19;;;;;;;21.98;10.20;;;;;;;;;;5021710;28;20037;-85
2022/01/27 07:23:46;;;;;;;24.20;10.93;;;;;;;;;;5008215;28;20049;-84
2022/01/27 07:26:12;;;;;;;23.02;10.90;;;;;;;;;;5022226;28;20100;-85
2022/01/27 07:28:37;;;;;;;23.63;10.65;;;;;;;;;;5008732;28;20468;-84
2022/01/27 07:31:03;;;;;;;21.00;10.35;;;;;;;;;;5004857;28;20033;-85
2022/01/27 07:33:28;;;;;;;19.95;10.63;;;;;;;;;;5007531;28;20091;-85
2022/01/27 07:35:54;;;;;;;18.95;10.68;;;;;;;;;;5006981;28;20033;-83
2022/01/27 07:38:19;;;;;;;23.30;10.85;;;;;;;;;;5008947;28;20036;-82
2022/01/27 07:40:44;;;;;;;25.33;10.55;;;;;;;;;;5008975;28;20053;-83
2022/01/27 07:43:10;;;;;;;21.45;10.50;;;;;;;;;;5006343;28;20472;-83
2022/01/27 07:45:36;;;;;;;23.23;10.80;;;;;;;;;;5027828;28;20390;-85
2022/01/27 07:48:01;;;;;;;20.55;10.05;;;;;;;;;;5025736;28;20109;-84
2022/01/27 07:50:29;;;;;;;28.05;11.18;;;;;;;;;;5005646;28;20037;-82
2022/01/27 07:52:55;;;;;;;22.80;10.63;;;;;;;;;;5001797;28;20026;-83
2022/01/27 07:55:20;;;;;;;22.33;10.57;;;;;;;;;;5005524;28;20489;-83
2022/01/27 07:57:46;;;;;;;22.42;10.45;;;;;;;;;;5002697;28;20036;-84
2022/01/27 08:00:12;;;;;;;21.25;11.00;;;;;;;;;;5007943;28;20029;-83
2022/01/27 08:02:38;;;;;;;20.63;10.70;;;;;;;;;;5022652;28;20034;-84
2022/01/27 08:05:03;;;;;;;24.25;11.10;;;;;;;;;;5008591;28;20037;-83
2022/01/27 08:07:29;;;;;;;20.55;10.50;;;;;;;;;;5007476;28;20044;-84
2022/01/27 08:09:54;;;;;;;21.70;10.68;;;;;;;;;;5021926;28;20419;-85
2022/01/27 08:12:19;;;;;;;23.50;11.27;;;;;;;;;;5002772;28;20116;-84
2022/01/27 08:14:45;;;;;;;22.23;10.25;;;;;;;;;;5005598;28;20594;-83
2022/01/27 08:17:10;;;;;;;22.80;11.32;;;;;;;;;;5003685;28;20085;-84
2022/01/27 08:19:35;;;;;;;22.95;11.18;;;;;;;;;;5005448;28;20026;-83
2022/01/27 08:22:01;;;;;;;25.58;10.55;;;;;;;;;;5006684;28;20025;-84
2022/01/27 08:24:26;;;;;;;22.25;10.57;;;;;;;;;;5005841;28;20043;-83
2022/01/27 08:26:53;;;;;;;22.02;10.45;;;;;;;;;;5019296;28;20033;-84
2022/01/27 08:29:23;;;;;;;25.13;10.38;;;;;;;;;;5022605;28;20023;-83
2022/01/27 08:32:05;;;;;;;19.92;9.98;;;;;;;;;;5007327;28;20029;-83
2022/01/27 08:34:41;;;;;;;20.42;9.68;;;;;;;;;;4999950;28;20033;-83
2022/01/27 08:37:18;;;;;;;18.48;9.75;;;;;;;;;;5008306;28;20021;-84
2022/01/27 08:39:44;;;;;;;21.45;10.35;;;;;;;;;;5000308;28;20037;-84
2022/01/27 08:42:10;;;;;;;19.27;9.68;;;;;;;;;;5003776;28;20025;-84
2022/01/27 08:44:36;;;;;;;18.92;9.93;;;;;;;;;;5000662;28;20087;-84
2022/01/27 08:47:03;;;;;;;22.23;10.93;;;;;;;;;;5005268;28;20026;-82
2022/01/27 08:49:28;;;;;;;18.15;9.32;;;;;;;;;;5003712;28;20053;-83
2022/01/27 08:51:55;;;;;;;24.52;9.43;;;;;;;;;;5001413;28;20037;-84
2022/01/27 08:54:20;;;;;;;20.17;9.85;;;;;;;;;;5003867;28;20028;-84
2022/01/27 08:56:46;;;;;;;19.60;9.20;;;;;;;;;;5005832;28;20030;-84
2022/01/27 08:59:12;;;;;;;19.55;9.88;;;;;;;;;;5001382;28;20404;-85
2022/01/27 09:01:38;;;;;;;23.80;9.40;;;;;;;;;;5007244;28;20120;-84
2022/01/27 09:04:04;;;;;;;21.23;9.95;;;;;;;;;;5005248;28;20073;-83
2022/01/27 09:06:29;;;;;;;19.10;9.80;;;;;;;;;;5003268;28;20041;-83
2022/01/27 09:08:56;;;;;;;18.40;8.98;;;;;;;;;;5019627;28;20022;-85
2022/01/27 09:11:22;;;;;;;18.50;9.68;;;;;;;;;;5009554;28;20033;-84
2022/01/27 09:13:47;;;;;;;18.52;9.15;;;;;;;;;;5023111;28;20105;-86
2022/01/27 09:16:13;;;;;;;17.98;9.38;;;;;;;;;;5017039;28;20106;-83
2022/01/27 09:18:39;;;;;;;17.33;9.13;;;;;;;;;;5003610;28;20069;-85
2022/01/27 09:21:10;;;;;;;17.20;9.38;;;;;;;;;;5009003;28;20611;-83
2022/01/27 09:23:36;;;;;;;16.85;8.48;;;;;;;;;;5000430;28;20026;-85
2022/01/27 09:26:08;;;;;;;16.20;8.88;;;;;;;;;;5020431;28;20128;-83
2022/01/27 09:28:34;;;;;;;17.45;8.55;;;;;;;;;;5003095;28;20060;-83
2022/01/27 09:31:01;;;;;;;18.27;9.35;;;;;;;;;;5022828;28;20022;-83
2022/01/27 09:33:27;;;;;;;17.20;8.75;;;;;;;;;;5002966;28;20014;-83
2022/01/27 09:35:52;;;;;;;18.83;9.20;;;;;;;;;;5005740;28;20075;-83
2022/01/27 09:38:17;;;;;;;16.90;8.80;;;;;;;;;;5005239;28;20033;-83
2022/01/27 09:40:46;;;;;;;16.50;8.98;;;;;;;;;;5009682;28;20025;-84
2022/01/27 09:43:12;;;;;;;17.33;9.13;;;;;;;;;;5024446;28;20090;-86
2022/01/27 09:45:39;;;;;;;17.85;8.52;;;;;;;;;;5007422;28;20037;-83
2022/01/27 09:48:13;;;;;;;15.93;8.55;;;;;;;;;;5020856;28;20079;-84
2022/01/27 09:53:23;;;;;;;14.68;7.90;;;;;;;;;;5022810;28;20511;-85
2022/01/27 09:55:48;;;;;;;14.63;7.85;;;;;;;;;;5003336;28;20021;-83
2022/01/27 09:58:13;;;;;;;13.88;8.07;;;;;;;;;;5003996;28;20033;-83
2022/01/27 10:00:39;;;;;;;15.10;8.23;;;;;;;;;;5017663;28;20540;-85
2022/01/27 10:03:14;;;;;;;15.00;7.43;;;;;;;;;;5002488;28;20494;-83
2022/01/27 10:05:41;;;;;;;11.68;7.47;;;;;;;;;;5006746;28;20091;-83
2022/01/27 10:08:13;;;;;;;15.05;7.72;;;;;;;;;;5004493;28;20030;-84
2022/01/27 10:10:47;;;;;;;15.50;7.82;;;;;;;;;;5004784;28;20034;-83
2022/01/27 10:13:36;;;;;;;12.00;7.15;;;;;;;;;;5017560;28;20030;-84
2022/01/27 10:16:02;;;;;;;12.57;6.70;;;;;;;;;;5006387;28;20034;-84
2022/01/27 10:18:35;;;;;;;14.13;7.10;;;;;;;;;;4998567;28;20080;-82
2022/01/27 10:21:08;;;;;;;11.27;6.63;;;;;;;;;;5003644;28;20033;-84
2022/01/27 10:23:37;;;;;;;12.48;6.68;;;;;;;;;;5001591;28;20033;-85
2022/01/27 10:26:13;;;;;;;10.52;6.72;;;;;;;;;;5004740;28;20040;-85
2022/01/27 10:29:01;;;;;;;13.65;6.45;;;;;;;;;;5007574;28;20021;-83
2022/01/27 10:31:27;;;;;;;13.43;6.85;;;;;;;;;;5006244;28;20466;-85
2022/01/27 10:33:57;;;;;;;11.68;7.15;;;;;;;;;;5006657;28;20026;-84
2022/01/27 10:36:25;;;;;;;11.13;6.35;;;;;;;;;;5003889;28;20029;-83
2022/01/27 10:39:12;;;;;;;14.20;6.70;;;;;;;;;;5001953;28;20044;-84
2022/01/27 10:41:54;;;;;;;11.43;6.43;;;;;;;;;;5003250;28;20120;-84
2022/01/27 10:44:19;;;;;;;11.88;6.40;;;;;;;;;;5005453;28;20027;-84
2022/01/27 10:47:10;;;;;;;15.13;7.22;;;;;;;;;;5017780;28;20455;-83
2022/01/27 10:49:41;;;;;;;15.20;7.72;;;;;;;;;;5004070;28;20048;-83
2022/01/27 10:52:11;;;;;;;16.13;8.48;;;;;;;;;;5020611;28;20021;-83
2022/01/27 10:54:39;;;;;;;12.77;7.90;;;;;;;;;;5002786;28;20025;-83
2022/01/27 10:57:10;;;;;;;14.88;7.53;;;;;;;;;;5009219;28;20407;-82
2022/01/27 10:59:36;;;;;;;16.02;8.23;;;;;;;;;;5019134;28;20025;-83
2022/01/27 11:02:09;;;;;;;13.57;8.07;;;;;;;;;;5002836;28;20022;-82
2022/01/27 11:04:40;;;;;;;15.75;8.18;;;;;;;;;;5003430;28;20083;-82
2022/01/27 11:07:09;;;;;;;17.25;8.38;;;;;;;;;;5021678;28;20025;-83
2022/01/27 11:09:37;;;;;;;18.30;8.15;;;;;;;;;;5001834;28;20026;-82
2022/01/27 11:12:07;;;;;;;15.05;8.32;;;;;;;;;;5003122;28;20125;-84
2022/01/27 11:14:36;;;;;;;17.77;8.40;;;;;;;;;;5003563;28;20040;-84
2022/01/27 11:17:05;;;;;;;14.85;8.73;;;;;;;;;;5008330;28;20076;-84
2022/01/27 11:22:06;;;;;;;18.38;8.65;;;;;;;;;;5018510;28;20057;-83
2022/01/27 11:27:20;;;;;;;17.13;8.13;;;;;;;;;;5027119;28;20403;-83
2022/01/27 11:29:50;;;;;;;18.88;8.55;;;;;;;;;;5006145;28;20120;-83
2022/01/27 11:32:30;;;;;;;17.13;8.15;;;;;;;;;;5008342;28;20029;-83
2022/01/27 11:34:56;;;;;;;16.52;8.00;;;;;;;;;;5011508;28;20111;-82
2022/01/27 11:37:34;;;;;;;18.55;8.00;;;;;;;;;;5023097;28;20038;-83
2022/01/27 11:40:04;;;;;;;17.92;8.55;;;;;;;;;;5008709;28;20030;-84
2022/01/27 11:42:37;;;;;;;17.70;8.40;;;;;;;;;;5022139;28;20116;-82
2022/01/27 11:45:20;;;;;;;16.25;8.18;;;;;;;;;;5005932;28;20479;-84
2022/01/27 11:47:51;;;;;;;16.83;7.93;;;;;;;;;;5005573;28;20037;-85
2022/01/27 11:50:58;;;;;;;16.75;8.18;;;;;;;;;;5022486;28;20041;-84
2022/01/27 11:53:40;;;;;;;14.45;7.63;;;;;;;;;;5009417;28;20029;-84
2022/01/27 11:56:08;;;;;;;15.75;7.85;;;;;;;;;;5027152;28;20026;-84
2022/01/27 11:58:52;;;;;;;15.35;7.75;;;;;;;;;;5004924;28;20132;-84
2022/01/27 12:01:27;;;;;;;14.10;6.90;;;;;;;;;;5021394;28;20037;-84
2022/01/27 12:04:02;;;;;;;13.02;6.97;;;;;;;;;;5002465;28;20022;-84
2022/01/27 12:06:28;;;;;;;15.65;8.32;;;;;;;;;;5005711;28;20034;-84
2022/01/27 12:11:54;;;;;;;16.60;7.53;;;;;;;;;;5020621;28;20044;-84
2022/01/27 12:14:33;;;;;;;16.80;8.00;;;;;;;;;;5007994;28;20083;-83
2022/01/27 12:17:10;;;;;;;16.38;7.95;;;;;;;;;;5025343;28;20069;-83
2022/01/27 12:19:48;;;;;;;18.52;8.27;;;;;;;;;;5025744;28;20030;-84
2022/01/27 12:22:15;;;;;;;16.13;7.53;;;;;;;;;;5026690;28;20064;-83
2022/01/27 12:25:00;;;;;;;15.90;7.97;;;;;;;;;;5023980;28;20125;-84
2022/01/27 12:27:28;;;;;;;21.45;7.72;;;;;;;;;;5003079;28;20029;-83
2022/01/27 12:29:56;;;;;;;18.13;7.72;;;;;;;;;;5024188;28;20413;-84
2022/01/27 12:32:22;;;;;;;20.63;7.10;;;;;;;;;;5006552;28;20137;-84
2022/01/27 12:34:53;;;;;;;16.95;7.38;;;;;;;;;;5005068;28;20422;-85
2022/01/27 12:37:21;;;;;;;17.27;7.65;;;;;;;;;;5004648;28;20118;-84
2022/01/27 12:39:53;;;;;;;23.10;7.40;;;;;;;;;;5025502;28;20025;-84
2022/01/27 12:42:19;;;;;;;20.52;7.15;;;;;;;;;;5023864;28;20033;-84
2022/01/27 12:44:59;;;;;;;16.08;6.97;;;;;;;;;;5005112;28;20055;-83
2022/01/27 12:47:27;;;;;;;15.27;7.10;;;;;;;;;;5023000;28;20048;-84
2022/01/27 12:50:06;;;;;;;14.73;7.28;;;;;;;;;;5007321;28;20029;-84
2022/01/27 12:52:43;;;;;;;17.30;6.75;;;;;;;;;;5021140;28;20528;-84
2022/01/27 12:55:19;;;;;;;15.80;6.43;;;;;;;;;;5022987;28;20491;-84
2022/01/27 12:57:54;;;;;;;14.63;6.32;;;;;;;;;;5005993;28;20561;-83
2022/01/27 13:00:20;;;;;;;13.55;7.10;;;;;;;;;;5004916;28;20168;-83
2022/01/27 13:02:45;;;;;;;16.88;6.28;;;;;;;;;;5007919;28;20404;-84
2022/01/27 13:05:10;;;;;;;15.35;6.68;;;;;;;;;;5008370;28;20388;-83
2022/01/27 13:07:37;;;;;;;21.45;6.38;;;;;;;;;;5002578;28;20025;-83
2022/01/27 13:10:13;;;;;;;18.40;6.35;;;;;;;;;;5007394;28;20022;-84
2022/01/27 13:12:54;;;;;;;16.00;6.22;;;;;;;;;;5021917;28;20021;-84
2022/01/27 13:15:23;;;;;;;15.45;6.35;;;;;;;;;;5005624;28;20060;-84
2022/01/27 13:17:54;;;;;;;15.45;6.15;;;;;;;;;;5002986;28;20095;-84
2022/01/27 13:22:54;;;;;;;17.42;5.88;;;;;;;;;;5021012;28;20125;-84
2022/01/27 13:25:22;;;;;;;15.90;6.63;;;;;;;;;;5008483;28;20037;-84
2022/01/27 13:28:18;;;;;;;12.23;5.93;;;;;;;;;;5003694;28;20071;-84
2022/01/27 13:30:43;;;;;;;17.73;6.93;;;;;;;;;;4995661;28;20125;-84
2022/01/27 13:33:14;;;;;;;13.93;6.80;;;;;;;;;;5022845;28;20555;-84
2022/01/27 13:35:39;;;;;;;11.93;6.78;;;;;;;;;;5022338;28;20169;-84
2022/01/27 13:38:11;;;;;;;15.95;6.80;;;;;;;;;;5002102;28;20112;-84
2022/01/27 13:43:20;;;;;;;13.30;5.65;;;;;;;;;;5020268;28;20072;-83
2022/01/27 13:45:46;;;;;;;15.73;6.32;;;;;;;;;;5019081;28;20392;-84
2022/01/27 13:48:22;;;;;;;14.50;6.45;;;;;;;;;;5007167;28;20537;-83
2022/01/27 13:50:56;;;;;;;14.88;6.22;;;;;;;;;;5001551;28;20030;-83
2022/01/27 13:53:22;;;;;;;16.95;6.57;;;;;;;;;;5003289;28;20033;-84
2022/01/27 13:56:02;;;;;;;17.85;7.20;;;;;;;;;;5005658;28;20026;-82
2022/01/27 13:58:29;;;;;;;18.13;6.60;;;;;;;;;;5001460;28;20108;-84
2022/01/27 14:01:07;;;;;;;15.93;6.30;;;;;;;;;;5006615;28;20022;-83
2022/01/27 14:03:44;;;;;;;18.45;6.85;;;;;;;;;;5001846;28;20500;-85
2022/01/27 14:06:11;;;;;;;17.02;6.93;;;;;;;;;;5007518;28;20033;-82
2022/01/27 14:08:41;;;;;;;17.08;6.47;;;;;;;;;;5003051;28;20109;-83
2022/01/27 14:11:08;;;;;;;15.75;7.07;;;;;;;;;;5016924;28;20384;-83
2022/01/27 14:13:34;;;;;;;17.30;6.65;;;;;;;;;;4999032;28;20049;-83
2022/01/27 14:16:00;;;;;;;15.70;7.38;;;;;;;;;;5023931;28;20448;-83
2022/01/27 14:18:39;;;;;;;16.35;6.65;;;;;;;;;;5000425;28;20081;-84
2022/01/27 14:21:05;;;;;;;16.45;7.00;;;;;;;;;;5000077;28;20450;-84
2022/01/27 14:26:25;;;;;;;12.68;6.00;;;;;;;;;;5016477;28;20622;-84
2022/01/27 14:28:52;;;;;;;15.15;6.10;;;;;;;;;;5002139;28;20026;-83
2022/01/27 14:31:18;;;;;;;14.95;5.90;;;;;;;;;;5004413;28;20061;-84
2022/01/27 14:33:44;;;;;;;12.18;5.50;;;;;;;;;;5003495;28;20464;-84
2022/01/27 14:36:11;;;;;;;12.35;5.97;;;;;;;;;;5005204;28;20029;-84
2022/01/27 14:38:36;;;;;;;13.02;5.93;;;;;;;;;;5003743;28;20072;-82
2022/01/27 14:41:03;;;;;;;11.48;5.50;;;;;;;;;;5004901;28;20045;-83
2022/01/27 14:43:30;;;;;;;13.10;5.07;;;;;;;;;;5004844;28;20065;-84
2022/01/27 14:45:56;;;;;;;13.95;5.40;;;;;;;;;;5007691;28;20116;-85
2022/01/27 14:48:21;;;;;;;12.13;4.55;;;;;;;;;;5000017;28;20121;-84
2022/01/27 14:50:47;;;;;;;9.18;4.30;;;;;;;;;;5000682;28;20148;-84
2022/01/27 14:53:12;;;;;;;9.40;3.88;;;;;;;;;;5007203;28;20108;-83
2022/01/27 14:55:38;;;;;;;8.00;4.00;;;;;;;;;;5022076;28;20025;-83
2022/01/27 14:58:03;;;;;;;13.27;3.88;;;;;;;;;;5001863;28;20077;-83
2022/01/27 15:00:29;;;;;;;10.43;3.90;;;;;;;;;;5005930;28;20564;-83
2022/01/27 15:02:55;;;;;;;9.40;3.17;;;;;;;;;;5006649;28;20360;-82
2022/01/27 15:05:20;;;;;;;10.55;2.78;;;;;;;;;;5007459;28;20427;-83
2022/01/27 15:07:47;;;;;;;6.05;2.15;;;;;;;;;;5007213;28;20034;-84
2022/01/27 15:10:20;;;;;;;7.40;2.60;;;;;;;;;;5003754;28;20117;-84
2022/01/27 15:12:49;;;;;;;7.63;2.38;;;;;;;;;;5023270;28;20415;-83
2022/01/27 15:20:43;;;;;;;7.32;1.92;;;;;;;;;;5027908;28;20109;-84
2022/01/27 15:23:08;;;;;;;10.05;2.63;;;;;;;;;;5008611;28;20120;-84
2022/01/27 15:25:34;;;;;;;8.70;2.30;;;;;;;;;;5027523;28;20033;-85
2022/01/27 15:28:00;;;;;;;11.35;2.00;;;;;;;;;;5006670;28;20029;-85
2022/01/27 15:30:25;;;;;;;6.50;2.22;;;;;;;;;;5009422;28;20357;-83
2022/01/27 15:32:51;;;;;;;7.55;1.85;;;;;;;;;;5010315;28;20075;-85
2022/01/27 15:35:17;;;;;;;6.47;1.65;;;;;;;;;;5007012;28;20041;-84
2022/01/27 15:37:44;;;;;;;10.50;1.92;;;;;;;;;;5001125;28;20060;-85
2022/01/27 15:40:15;;;;;;;6.85;1.70;;;;;;;;;;4998166;28;20432;-83
2022/01/27 15:42:45;;;;;;;9.60;1.90;;;;;;;;;;5016064;28;20035;-84